createdAt,value
2022-08-04T00:01:07.210Z,24.25
2022-08-04T00:03:49.196Z,24.25
2022-08-04T00:06:28.500Z,24.24
2022-08-04T00:09:02.863Z,24.21
2022-08-04T00:11:33.366Z,24.19
2022-08-04T00:14:04.716Z,24.19
2022-08-04T00:16:38.936Z,24.19
2022-08-04T00:19:12.670Z,24.17
2022-08-04T00:21:47.712Z,24.17
2022-08-04T00:24:18.222Z,24.16
2022-08-04T00:26:47.876Z,24.15
2022-08-04T00:29:17.780Z,24.13
2022-08-04T00:31:54.711Z,24.12
2022-08-04T00:34:29.162Z,24.10
2022-08-04T00:36:58.703Z,24.10
2022-08-04T00:39:30.669Z,24.09
2022-08-04T00:42:23.729Z,24.08
2022-08-04T00:45:12.449Z,24.06
2022-08-04T00:47:54.647Z,24.04
2022-08-04T00:50:33.034Z,24.02
2022-08-04T00:53:30.369Z,24.01
2022-08-04T00:56:22.902Z,24.00
2022-08-04T00:59:09.960Z,23.99
2022-08-04T01:01:52.376Z,23.98
2022-08-04T01:04:29.739Z,23.96
2022-08-04T01:07:18.046Z,23.94
2022-08-04T01:09:59.288Z,23.91
2022-08-04T01:12:43.703Z,23.94
2022-08-04T01:15:26.237Z,23.95
2022-08-04T01:18:06.088Z,23.96
2022-08-04T01:20:41.944Z,23.97
2022-08-04T01:23:45.786Z,23.98
2022-08-04T01:26:57.325Z,23.98
2022-08-04T01:29:43.980Z,23.97
2022-08-04T01:32:26.193Z,23.97
2022-08-04T01:35:02.634Z,23.96
2022-08-04T01:37:46.178Z,23.93
2022-08-04T01:40:16.197Z,23.91
2022-08-04T01:42:46.881Z,23.88
2022-08-04T01:45:16.213Z,23.90
2022-08-04T01:47:50.717Z,23.91
2022-08-04T01:50:20.434Z,23.91
2022-08-04T01:52:52.296Z,23.92
2022-08-04T01:55:22.812Z,23.92
2022-08-04T01:57:52.770Z,23.92
2022-08-04T02:00:26.233Z,23.91
2022-08-04T02:02:56.337Z,23.90
2022-08-04T02:06:03.310Z,23.88
2022-08-04T02:08:30.995Z,23.86
2022-08-04T02:11:10.754Z,23.84
2022-08-04T02:13:48.660Z,23.82
2022-08-04T02:16:28.171Z,23.80
2022-08-04T02:19:04.632Z,23.81
2022-08-04T02:21:42.240Z,23.82
2022-08-04T02:24:16.476Z,23.83
2022-08-04T02:26:50.151Z,23.84
2022-08-04T02:29:27.297Z,23.86
2022-08-04T02:32:04.156Z,23.89
2022-08-04T02:34:38.879Z,23.91
2022-08-04T02:37:09.189Z,23.91
2022-08-04T02:39:48.827Z,23.90
2022-08-04T02:42:19.053Z,23.86
2022-08-04T02:44:50.922Z,23.84
2022-08-04T02:47:22.306Z,23.82
2022-08-04T02:49:52.836Z,23.79
2022-08-04T02:52:23.824Z,23.78
2022-08-04T02:54:55.812Z,23.74
2022-08-04T02:57:29.205Z,23.70
2022-08-04T03:00:12.724Z,23.67
2022-08-04T03:02:55.775Z,23.66
2022-08-04T03:05:32.074Z,23.66
2022-08-04T03:08:30.194Z,23.64
2022-08-04T03:11:26.220Z,23.60
2022-08-04T03:14:25.315Z,23.59
2022-08-04T03:17:30.664Z,23.57
2022-08-04T03:20:34.948Z,23.55
2022-08-04T03:23:24.523Z,23.53
2022-08-04T03:26:22.934Z,23.49
2022-08-04T03:29:36.525Z,23.50
2022-08-04T03:32:49.715Z,23.50
2022-08-04T03:35:40.110Z,23.50
2022-08-04T03:38:31.937Z,23.49
2022-08-04T03:41:51.567Z,23.47
2022-08-04T03:44:46.179Z,23.43
2022-08-04T03:47:44.626Z,23.42
2022-08-04T03:50:37.102Z,23.40
2022-08-04T03:53:30.704Z,23.40
2022-08-04T03:56:30.478Z,23.37
2022-08-04T03:59:37.486Z,23.41
2022-08-04T04:02:43.103Z,23.45
2022-08-04T04:05:59.975Z,23.49
2022-08-04T04:09:08.006Z,23.52
2022-08-04T04:12:02.067Z,23.53
2022-08-04T04:14:49.600Z,23.54
2022-08-04T04:17:54.202Z,23.51
2022-08-04T04:20:44.697Z,23.44
2022-08-04T04:23:30.561Z,23.39
2022-08-04T04:26:18.849Z,23.28
2022-08-04T04:29:03.718Z,23.13
2022-08-04T04:31:53.707Z,23.05
2022-08-04T04:34:35.711Z,22.98
2022-08-04T04:37:32.440Z,22.88
2022-08-04T04:40:08.263Z,22.85
2022-08-04T04:42:53.362Z,22.79
2022-08-04T04:45:32.502Z,22.79
2022-08-04T04:48:10.695Z,22.79
2022-08-04T04:50:53.312Z,22.79
2022-08-04T04:53:28.965Z,22.81
2022-08-04T04:56:08.571Z,22.83
2022-08-04T04:58:38.435Z,22.83
2022-08-04T05:01:32.233Z,22.80
2022-08-04T05:04:20.012Z,22.84
2022-08-04T05:07:08.663Z,22.86
2022-08-04T05:09:52.355Z,22.88
2022-08-04T05:14:34.619Z,22.90
2022-08-04T05:15:43.539Z,22.99
2022-08-04T05:18:19.235Z,23.03
2022-08-04T05:20:54.617Z,23.08
2022-08-04T05:23:28.184Z,23.12
2022-08-04T05:26:01.417Z,23.15
2022-08-04T05:28:36.584Z,23.19
2022-08-04T05:31:11.965Z,23.25
2022-08-04T05:33:47.224Z,23.32
2022-08-04T05:36:35.311Z,23.38
2022-08-04T05:39:14.743Z,23.45
2022-08-04T05:41:48.022Z,23.50
2022-08-04T05:44:26.763Z,23.55
2022-08-04T05:46:58.306Z,23.59
2022-08-04T05:49:29.356Z,23.65
2022-08-04T05:52:01.548Z,23.70
2022-08-04T05:54:33.249Z,23.81
2022-08-04T05:57:05.262Z,23.88
2022-08-04T05:59:37.585Z,23.98
2022-08-04T06:02:08.187Z,24.11
2022-08-04T06:04:40.066Z,24.23
2022-08-04T06:07:10.729Z,24.36
2022-08-04T06:09:39.911Z,24.47
2022-08-04T06:12:11.887Z,24.60
2022-08-04T06:14:43.853Z,24.72
2022-08-04T06:18:32.737Z,24.86
2022-08-04T06:20:19.630Z,25.02
2022-08-04T06:22:57.573Z,25.20
2022-08-04T06:25:29.704Z,25.36
2022-08-04T06:27:59.864Z,25.50
2022-08-04T06:30:31.829Z,25.67
2022-08-04T06:33:03.420Z,25.81
2022-08-04T06:35:35.416Z,25.97
2022-08-04T06:38:05.036Z,26.12
2022-08-04T06:40:34.908Z,26.26
2022-08-04T06:43:07.182Z,26.45
2022-08-04T06:45:39.388Z,26.62
2022-08-04T06:48:12.471Z,26.78
2022-08-04T06:51:25.682Z,26.97
2022-08-04T06:53:33.910Z,27.21
2022-08-04T06:56:03.024Z,27.42
2022-08-04T06:58:33.446Z,27.67
2022-08-04T07:01:03.163Z,27.91
2022-08-04T07:03:32.755Z,28.15
2022-08-04T07:06:06.086Z,28.34
2022-08-04T07:08:44.193Z,28.55
2022-08-04T07:11:14.477Z,28.74
2022-08-04T07:13:46.003Z,28.94
2022-08-04T07:16:16.345Z,29.16
2022-08-04T07:18:45.405Z,29.39
2022-08-04T07:21:22.074Z,29.61
2022-08-04T07:23:51.287Z,29.78
2022-08-04T07:26:20.296Z,30.04
2022-08-04T07:28:49.078Z,30.34
2022-08-04T07:31:33.278Z,30.61
2022-08-04T07:34:17.224Z,30.93
2022-08-04T07:36:55.435Z,31.22
2022-08-04T07:39:29.537Z,31.49
2022-08-04T07:42:03.382Z,31.65
2022-08-04T07:44:35.056Z,31.89
2022-08-04T07:47:06.397Z,32.16
2022-08-04T07:49:55.001Z,32.37
2022-08-04T07:52:26.614Z,32.60
2022-08-04T07:54:55.792Z,32.79
2022-08-04T07:57:40.432Z,32.99
2022-08-04T08:00:14.215Z,33.21
2022-08-04T08:02:45.391Z,33.39
2022-08-04T08:05:16.653Z,33.50
2022-08-04T08:07:50.839Z,33.46
2022-08-04T08:10:24.582Z,33.57
2022-08-04T08:12:53.801Z,33.75
2022-08-04T08:15:22.986Z,33.98
2022-08-04T08:17:58.520Z,34.28
2022-08-04T08:20:33.278Z,34.51
2022-08-04T08:23:04.010Z,34.66
2022-08-04T08:25:33.472Z,34.73
2022-08-04T08:28:04.739Z,34.94
2022-08-04T08:30:34.250Z,35.26
2022-08-04T08:33:06.091Z,35.52
2022-08-04T08:35:53.629Z,35.63
2022-08-04T08:38:43.210Z,35.46
2022-08-04T08:41:46.255Z,35.64
2022-08-04T08:45:12.420Z,35.91
2022-08-04T08:48:11.417Z,36.14
2022-08-04T08:51:07.759Z,36.45
2022-08-04T08:54:04.943Z,36.57
2022-08-04T08:56:44.654Z,36.55
2022-08-04T08:59:43.360Z,36.62
2022-08-04T09:02:34.031Z,36.64
2022-08-04T09:05:24.381Z,36.68
2022-08-04T09:08:10.349Z,36.67
2022-08-04T09:10:45.054Z,36.41
2022-08-04T09:13:23.978Z,36.56
2022-08-04T09:16:02.520Z,36.83
2022-08-04T09:18:37.664Z,36.88
2022-08-04T09:21:13.586Z,36.87
2022-08-04T09:23:51.821Z,36.68
2022-08-04T09:26:27.461Z,36.40
2022-08-04T09:29:07.427Z,36.37
2022-08-04T09:31:48.658Z,36.40
2022-08-04T09:34:30.887Z,36.42
2022-08-04T09:37:12.563Z,36.48
2022-08-04T09:39:52.128Z,36.61
2022-08-04T09:42:44.965Z,36.73
2022-08-04T09:45:26.504Z,36.90
2022-08-04T09:48:05.358Z,37.13
2022-08-04T09:50:38.042Z,37.09
2022-08-04T09:53:30.843Z,37.25
2022-08-04T09:56:08.973Z,37.51
2022-08-04T09:58:54.016Z,37.83
2022-08-04T10:01:27.819Z,38.02
2022-08-04T10:04:01.369Z,38.01
2022-08-04T10:06:45.823Z,37.73
2022-08-04T10:09:28.569Z,37.48
2022-08-04T10:12:22.365Z,37.36
2022-08-04T10:15:04.019Z,37.28
2022-08-04T10:18:10.317Z,37.31
2022-08-04T10:21:04.678Z,37.43
2022-08-04T10:23:56.171Z,37.52
2022-08-04T10:26:42.816Z,37.47
2022-08-04T10:29:14.780Z,37.43
2022-08-04T10:31:48.779Z,37.27
2022-08-04T10:34:21.468Z,37.06
2022-08-04T10:36:59.153Z,37.05
2022-08-04T10:39:42.866Z,36.86
2022-08-04T10:42:30.855Z,36.63
2022-08-04T10:45:11.581Z,36.55
2022-08-04T10:47:53.490Z,36.36
2022-08-04T10:50:25.985Z,36.29
2022-08-04T10:53:01.050Z,36.21
2022-08-04T10:56:07.922Z,36.28
2022-08-04T10:58:47.479Z,36.40
2022-08-04T11:02:01.283Z,36.45
2022-08-04T11:04:27.725Z,36.44
2022-08-04T11:06:58.975Z,36.42
2022-08-04T11:09:30.253Z,35.98
2022-08-04T11:12:07.638Z,35.53
2022-08-04T11:14:43.035Z,35.33
2022-08-04T11:17:20.754Z,34.90
2022-08-04T11:20:12.656Z,34.59
2022-08-04T11:22:55.617Z,34.46
2022-08-04T11:25:29.872Z,34.41
2022-08-04T11:28:09.360Z,34.22
2022-08-04T11:30:45.081Z,33.82
2022-08-04T11:33:21.989Z,33.51
2022-08-04T11:36:02.220Z,33.33
2022-08-04T11:38:37.476Z,33.29
2022-08-04T11:41:11.895Z,33.30
2022-08-04T11:44:00.607Z,33.32
2022-08-04T11:46:39.990Z,33.34
2022-08-04T11:49:11.755Z,33.35
2022-08-04T11:51:43.179Z,33.36
2022-08-04T11:54:13.691Z,33.37
2022-08-04T11:56:42.664Z,33.33
2022-08-04T11:59:11.523Z,33.29
2022-08-04T12:01:56.512Z,33.22
2022-08-04T12:04:35.037Z,33.10
2022-08-04T12:07:30.459Z,32.95
2022-08-04T12:10:14.258Z,32.81
2022-08-04T12:12:51.715Z,32.64
2022-08-04T12:15:26.048Z,32.49
2022-08-04T12:18:04.684Z,32.37
2022-08-04T12:20:43.191Z,32.29
2022-08-04T12:23:23.093Z,32.21
2022-08-04T12:25:56.959Z,32.16
2022-08-04T12:28:52.660Z,32.12
2022-08-04T12:31:26.369Z,32.09
2022-08-04T12:34:04.334Z,32.09
2022-08-04T12:36:42.350Z,32.03
2022-08-04T12:39:16.113Z,31.95
2022-08-04T12:41:53.627Z,31.92
2022-08-04T12:44:32.691Z,31.93
2022-08-04T12:47:36.785Z,31.94
2022-08-04T12:50:03.717Z,31.89
2022-08-04T12:55:33.955Z,31.86
2022-08-04T12:58:11.613Z,31.92
2022-08-04T13:00:42.381Z,31.99
2022-08-04T13:03:15.549Z,31.98
2022-08-04T13:05:46.692Z,31.99
2022-08-04T13:08:20.200Z,31.95
2022-08-04T13:10:52.354Z,31.93
2022-08-04T13:13:24.603Z,31.98
2022-08-04T13:15:58.183Z,32.03
2022-08-04T13:18:32.272Z,32.08
2022-08-04T13:21:21.093Z,32.11
2022-08-04T13:24:10.103Z,32.17
2022-08-04T13:26:54.296Z,32.22
2022-08-04T13:29:58.779Z,32.26
2022-08-04T13:32:23.183Z,32.27
2022-08-04T13:34:54.854Z,32.28
2022-08-04T13:37:27.294Z,32.32
2022-08-04T13:39:57.575Z,32.34
2022-08-04T13:42:27.803Z,32.34
2022-08-04T13:44:58.626Z,32.30
2022-08-04T13:47:31.303Z,32.25
2022-08-04T13:50:15.536Z,32.27
2022-08-04T13:52:45.158Z,32.31
2022-08-04T13:55:22.144Z,32.33
2022-08-04T13:57:55.620Z,32.35
2022-08-04T14:00:30.272Z,32.30
2022-08-04T14:03:03.466Z,32.28
2022-08-04T14:06:08.799Z,32.31
2022-08-04T14:08:47.524Z,32.32
2022-08-04T14:12:07.129Z,32.31
2022-08-04T14:14:21.738Z,32.28
2022-08-04T14:16:59.360Z,32.30
2022-08-04T14:19:32.594Z,32.31
2022-08-04T14:22:05.389Z,32.27
2022-08-04T14:24:34.311Z,32.24
2022-08-04T14:27:03.216Z,32.22
2022-08-04T14:29:38.840Z,32.26
2022-08-04T14:32:12.622Z,32.27
2022-08-04T14:34:46.156Z,32.30
2022-08-04T14:37:19.605Z,32.28
2022-08-04T14:40:18.028Z,32.25
2022-08-04T14:42:55.681Z,32.25
2022-08-04T14:45:31.369Z,32.19
2022-08-04T14:48:01.608Z,32.16
2022-08-04T14:50:39.612Z,32.19
2022-08-04T14:53:11.264Z,32.17
2022-08-04T14:55:43.227Z,32.07
2022-08-04T14:58:36.762Z,32.02
2022-08-04T15:01:10.223Z,32.01
2022-08-04T15:03:49.830Z,32.02
2022-08-04T15:06:24.955Z,32.07
2022-08-04T15:08:55.671Z,32.14
2022-08-04T15:11:25.407Z,32.17
2022-08-04T15:13:55.095Z,32.22
2022-08-04T15:16:26.380Z,32.19
2022-08-04T15:18:56.874Z,32.10
2022-08-04T15:21:28.536Z,32.02
2022-08-04T15:23:58.110Z,32.01
2022-08-04T15:26:33.857Z,32.06
2022-08-04T15:29:16.232Z,32.11
2022-08-04T15:32:06.355Z,32.11
2022-08-04T15:34:47.816Z,32.09
2022-08-04T15:37:25.388Z,32.11
2022-08-04T15:39:59.709Z,32.11
2022-08-04T15:42:36.381Z,32.20
2022-08-04T15:45:20.099Z,32.27
2022-08-04T15:48:26.269Z,32.35
2022-08-04T15:51:04.849Z,32.44
2022-08-04T15:54:03.003Z,32.50
2022-08-04T15:56:48.549Z,32.56
2022-08-04T15:59:58.020Z,32.43
2022-08-04T16:02:50.006Z,32.29
2022-08-04T16:05:35.091Z,32.21
2022-08-04T16:08:18.648Z,32.15
2022-08-04T16:10:49.922Z,32.07
2022-08-04T16:13:21.002Z,31.96
2022-08-04T16:15:52.424Z,31.87
2022-08-04T16:18:38.215Z,31.81
2022-08-04T16:21:18.183Z,31.77
2022-08-04T16:24:06.837Z,31.70
2022-08-04T16:26:56.552Z,31.55
2022-08-04T16:29:31.199Z,31.34
2022-08-04T16:32:14.557Z,31.12
2022-08-04T16:34:55.429Z,30.93
2022-08-04T16:37:30.777Z,30.79
2022-08-04T16:40:34.570Z,30.72
2022-08-04T16:43:07.784Z,30.70
2022-08-04T16:45:45.656Z,30.64
2022-08-04T16:48:15.844Z,30.60
2022-08-04T16:50:53.617Z,30.51
2022-08-04T16:53:53.619Z,30.41
2022-08-04T16:56:14.205Z,30.30
2022-08-04T16:58:53.041Z,30.21
2022-08-04T17:01:33.378Z,30.11
2022-08-04T17:04:07.504Z,30.06
2022-08-04T17:06:38.878Z,30.00
2022-08-04T17:09:11.268Z,29.98
2022-08-04T17:11:40.648Z,29.94
2022-08-04T17:14:09.547Z,29.89
2022-08-04T17:16:41.012Z,29.88
2022-08-04T17:19:23.767Z,29.84
2022-08-04T17:22:03.833Z,29.81
2022-08-04T17:24:36.259Z,29.79
2022-08-04T17:28:19.432Z,29.77
2022-08-04T17:29:54.963Z,29.74
2022-08-04T17:32:24.242Z,29.72
2022-08-04T17:34:55.389Z,29.72
2022-08-04T17:37:39.563Z,29.73
2022-08-04T17:40:13.712Z,29.74
2022-08-04T17:42:45.261Z,29.73
2022-08-04T17:48:24.945Z,29.66
2022-08-04T17:50:54.072Z,29.64
2022-08-04T17:54:01.406Z,29.61
2022-08-04T17:56:43.170Z,29.56
2022-08-04T17:59:49.649Z,29.52
2022-08-04T18:02:13.466Z,29.49
2022-08-04T18:05:08.026Z,29.48
2022-08-04T18:08:40.350Z,29.43
2022-08-04T18:10:44.708Z,29.39
2022-08-04T18:13:26.762Z,29.37
2022-08-04T18:16:12.588Z,29.36
2022-08-04T18:19:08.806Z,29.35
2022-08-04T18:21:45.693Z,29.32
2022-08-04T18:24:34.124Z,29.30
2022-08-04T18:27:16.989Z,29.25
2022-08-04T18:30:14.831Z,29.21
2022-08-04T18:32:35.340Z,29.16
2022-08-04T18:35:07.079Z,29.13
2022-08-04T18:38:06.082Z,29.12
2022-08-04T18:40:35.553Z,29.07
2022-08-04T18:43:14.330Z,29.03
2022-08-04T18:45:51.347Z,29.01
2022-08-04T18:48:20.327Z,28.98
2022-08-04T18:51:10.420Z,28.97
2022-08-04T18:53:38.825Z,28.94
2022-08-04T18:56:19.881Z,28.91
2022-08-04T18:59:00.040Z,28.86
2022-08-04T19:01:30.141Z,28.82
2022-08-04T19:04:33.654Z,28.79
2022-08-04T19:07:29.555Z,28.75
2022-08-04T19:09:57.972Z,28.72
2022-08-04T19:12:28.492Z,28.71
2022-08-04T19:15:08.468Z,28.68
2022-08-04T19:17:53.743Z,28.65
2022-08-04T19:20:28.038Z,28.63
2022-08-04T19:24:10.995Z,28.59
2022-08-04T19:26:01.462Z,28.57
2022-08-04T19:28:34.933Z,28.56
2022-08-04T19:31:06.451Z,28.54
2022-08-04T19:33:58.127Z,28.53
2022-08-04T19:36:29.141Z,28.52
2022-08-04T19:39:01.369Z,28.51
2022-08-04T19:41:33.292Z,28.49
2022-08-04T19:44:23.557Z,28.46
2022-08-04T19:46:53.162Z,28.43
2022-08-04T19:49:26.049Z,28.41
2022-08-04T19:52:10.869Z,28.38
2022-08-04T19:54:40.946Z,28.35
2022-08-04T19:57:11.865Z,28.32
2022-08-04T19:59:48.370Z,28.31
2022-08-04T20:02:17.563Z,28.29
2022-08-04T20:04:46.348Z,28.27
2022-08-04T20:07:16.617Z,28.22
2022-08-04T20:12:36.096Z,28.14
2022-08-04T20:15:11.064Z,28.08
2022-08-04T20:18:07.156Z,28.03
2022-08-04T20:20:33.465Z,27.99
2022-08-04T20:23:03.526Z,27.95
2022-08-04T20:25:36.680Z,27.93
2022-08-04T20:28:08.624Z,27.89
2022-08-04T20:30:55.050Z,27.85
2022-08-04T20:33:24.142Z,27.83
2022-08-04T20:36:04.992Z,27.81
2022-08-04T20:38:34.841Z,27.78
2022-08-04T20:41:04.055Z,27.76
2022-08-04T20:43:32.920Z,27.72
2022-08-04T20:46:17.689Z,27.71
2022-08-04T20:48:47.715Z,27.69
2022-08-04T20:51:19.512Z,27.66
2022-08-04T20:53:57.783Z,27.62
2022-08-04T20:56:30.699Z,27.60
2022-08-04T20:59:17.139Z,27.58
2022-08-04T21:01:49.526Z,27.56
2022-08-04T21:04:31.669Z,27.55
2022-08-04T21:07:03.385Z,27.54
2022-08-04T21:09:38.442Z,27.53
2022-08-04T21:12:27.238Z,27.53
2022-08-04T21:14:59.948Z,27.52
2022-08-04T21:17:59.559Z,27.51
2022-08-04T21:20:27.487Z,27.48
2022-08-04T21:25:50.175Z,27.45
2022-08-04T21:28:20.132Z,27.44
2022-08-04T21:30:52.465Z,27.43
2022-08-04T21:33:24.556Z,27.42
2022-08-04T21:36:13.751Z,27.38
2022-08-04T21:38:51.213Z,27.35
2022-08-04T21:41:25.122Z,27.33
2022-08-04T21:43:55.857Z,27.34
2022-08-04T21:46:24.871Z,27.32
2022-08-04T21:48:53.741Z,27.32
2022-08-04T21:51:58.772Z,27.31
2022-08-04T21:54:17.131Z,27.27
2022-08-04T21:56:50.659Z,27.28
2022-08-04T21:59:23.367Z,27.27
2022-08-04T22:01:57.326Z,27.23
2022-08-04T22:04:29.269Z,27.23
2022-08-04T22:07:02.975Z,27.21
2022-08-04T22:09:38.795Z,27.17
2022-08-04T22:12:12.019Z,27.15
2022-08-04T22:14:41.315Z,27.13
2022-08-04T22:17:13.645Z,27.13
2022-08-04T22:19:55.974Z,27.11
2022-08-04T22:22:29.637Z,27.09
2022-08-04T22:25:06.139Z,27.07
2022-08-04T22:28:03.049Z,27.06
2022-08-04T22:30:36.844Z,27.05
2022-08-04T22:33:08.341Z,27.04
2022-08-04T22:35:49.219Z,27.01
2022-08-04T22:38:26.741Z,26.99
2022-08-04T22:41:03.507Z,26.96
2022-08-04T22:43:34.592Z,26.92
2022-08-04T22:46:06.310Z,26.90
2022-08-04T22:48:38.095Z,26.86
2022-08-04T22:51:07.875Z,26.84
2022-08-04T22:53:37.104Z,26.84
2022-08-04T22:56:10.477Z,26.80
2022-08-04T22:58:45.276Z,26.78
2022-08-04T23:01:19.540Z,26.73
2022-08-04T23:03:55.247Z,26.69
2022-08-04T23:06:25.648Z,26.64
2022-08-04T23:08:57.920Z,26.60
2022-08-04T23:11:35.194Z,26.55
2022-08-04T23:14:06.210Z,26.52
2022-08-04T23:16:40.704Z,26.51
2022-08-04T23:19:15.102Z,26.47
2022-08-04T23:21:47.436Z,26.43
2022-08-04T23:24:30.157Z,26.40
2022-08-04T23:26:59.817Z,26.36
2022-08-04T23:29:54.415Z,26.30
2022-08-04T23:32:20.377Z,26.29
2022-08-04T23:34:49.327Z,26.25
2022-08-04T23:37:18.127Z,26.23
2022-08-04T23:40:15.507Z,26.22
2022-08-04T23:42:36.326Z,26.21
2022-08-04T23:45:07.434Z,26.19
2022-08-04T23:48:15.348Z,26.16
2022-08-04T23:50:25.865Z,26.15
2022-08-04T23:52:55.532Z,26.13
2022-08-04T23:55:24.612Z,26.11
2022-08-04T23:58:05.631Z,26.09
